createdAt,value
2018-06-24T00:01:02.908Z,2.00
2018-06-24T00:03:32.195Z,4.10
2018-06-24T00:06:01.636Z,1.83
2018-06-24T00:08:30.917Z,2.43
2018-06-24T00:11:00.181Z,2.10
2018-06-24T00:13:29.508Z,2.17
2018-06-24T00:15:58.720Z,1.73
2018-06-24T00:18:27.959Z,2.10
2018-06-24T00:20:57.351Z,2.00
2018-06-24T00:23:26.554Z,2.03
2018-06-24T00:25:56.137Z,2.20
2018-06-24T00:28:25.508Z,1.90
2018-06-24T00:30:55.955Z,2.03
2018-06-24T00:33:26.278Z,1.93
2018-06-24T00:35:55.561Z,2.13
2018-06-24T00:38:24.830Z,2.30
2018-06-24T00:40:55.082Z,2.30
2018-06-24T00:43:24.377Z,2.20
2018-06-24T00:45:53.624Z,2.10
2018-06-24T00:48:22.840Z,2.23
2018-06-24T00:50:52.120Z,2.50
2018-06-24T00:53:21.507Z,2.47
2018-06-24T00:55:50.746Z,2.00
2018-06-24T00:58:20.035Z,2.17
2018-06-24T01:00:49.253Z,2.30
2018-06-24T01:03:18.464Z,1.83
2018-06-24T01:05:47.722Z,2.30
2018-06-24T01:08:16.941Z,2.00
2018-06-24T01:10:46.276Z,1.80
2018-06-24T01:13:15.498Z,2.10
2018-06-24T01:15:45.517Z,1.67
2018-06-24T01:18:14.770Z,2.40
2018-06-24T01:20:44.075Z,2.20
2018-06-24T01:23:13.317Z,1.90
2018-06-24T01:25:42.590Z,1.73
2018-06-24T01:28:11.789Z,2.13
2018-06-24T01:30:41.013Z,1.70
2018-06-24T01:33:10.249Z,2.03
2018-06-24T01:35:39.579Z,2.37
2018-06-24T01:38:08.790Z,2.60
2018-06-24T01:40:37.984Z,2.30
2018-06-24T01:43:07.214Z,2.03
2018-06-24T01:45:36.514Z,2.60
2018-06-24T01:48:05.729Z,2.10
2018-06-24T01:50:34.966Z,2.60
2018-06-24T01:53:03.934Z,2.50
2018-06-24T01:55:33.287Z,2.10
2018-06-24T01:58:02.462Z,2.10
2018-06-24T02:00:31.672Z,2.77
2018-06-24T02:03:00.891Z,2.37
2018-06-24T02:05:30.115Z,2.03
2018-06-24T02:07:59.369Z,2.20
2018-06-24T02:10:29.597Z,2.73
2018-06-24T02:12:58.816Z,2.67
2018-06-24T02:15:28.031Z,2.90
2018-06-24T02:17:58.225Z,2.20
2018-06-24T02:20:27.427Z,2.10
2018-06-24T02:22:57.624Z,2.10
2018-06-24T02:25:27.427Z,1.80
2018-06-24T02:27:56.638Z,2.23
2018-06-24T02:30:25.919Z,2.10
2018-06-24T02:32:55.318Z,2.20
2018-06-24T02:35:24.534Z,2.33
2018-06-24T02:37:53.804Z,2.77
2018-06-24T02:40:24.175Z,2.60
2018-06-24T02:42:53.472Z,2.27
2018-06-24T02:45:23.701Z,2.23
2018-06-24T02:47:54.138Z,1.97
2018-06-24T02:50:23.358Z,1.97
2018-06-24T02:52:52.583Z,2.67
2018-06-24T02:55:21.823Z,2.70
2018-06-24T02:57:51.015Z,2.93
2018-06-24T03:00:20.213Z,2.73
2018-06-24T03:02:50.527Z,2.30
2018-06-24T03:05:19.836Z,2.80
2018-06-24T03:07:49.784Z,2.97
2018-06-24T03:10:18.997Z,2.53
2018-06-24T03:12:48.219Z,2.80
2018-06-24T03:15:18.454Z,3.27
2018-06-24T03:17:47.668Z,2.80
2018-06-24T03:20:16.913Z,2.90
2018-06-24T03:22:46.151Z,2.77
2018-06-24T03:25:15.382Z,3.03
2018-06-24T03:27:44.689Z,3.03
2018-06-24T03:30:14.879Z,2.57
2018-06-24T03:32:44.088Z,2.60
2018-06-24T03:35:13.353Z,2.90
2018-06-24T03:37:42.554Z,2.40
2018-06-24T03:40:11.840Z,2.43
2018-06-24T03:42:41.200Z,2.30
2018-06-24T03:45:10.491Z,3.07
2018-06-24T03:47:39.760Z,4.27
2018-06-24T03:50:09.227Z,2.70
2018-06-24T03:52:38.504Z,2.27
2018-06-24T03:55:07.748Z,2.47
2018-06-24T03:57:36.974Z,2.57
2018-06-24T04:00:07.102Z,2.70
2018-06-24T04:02:36.468Z,2.83
2018-06-24T04:05:06.104Z,3.10
2018-06-24T04:07:35.361Z,2.70
2018-06-24T04:10:04.748Z,3.20
2018-06-24T04:12:34.111Z,2.30
2018-06-24T04:15:03.433Z,2.80
2018-06-24T04:17:32.699Z,3.50
2018-06-24T04:20:01.940Z,3.80
2018-06-24T04:22:31.191Z,3.00
2018-06-24T04:25:00.419Z,3.03
2018-06-24T04:27:29.696Z,3.00
2018-06-24T04:29:58.886Z,4.10
2018-06-24T04:32:28.157Z,4.93
2018-06-24T04:34:57.386Z,4.37
2018-06-24T04:37:26.574Z,4.57
2018-06-24T04:39:55.822Z,3.97
2018-06-24T04:42:25.059Z,3.60
2018-06-24T04:44:54.278Z,4.77
2018-06-24T04:47:23.542Z,5.27
2018-06-24T04:49:52.815Z,3.97
2018-06-24T04:52:22.099Z,4.10
2018-06-24T04:54:51.262Z,4.63
2018-06-24T04:57:20.484Z,3.83
2018-06-24T04:59:49.717Z,4.37
2018-06-24T05:02:18.997Z,4.43
2018-06-24T05:04:48.736Z,3.90
2018-06-24T05:07:17.631Z,3.90
2018-06-24T05:09:46.704Z,4.07
2018-06-24T05:12:15.965Z,3.67
2018-06-24T05:14:45.199Z,5.00
2018-06-24T05:17:15.653Z,4.17
2018-06-24T05:19:44.908Z,4.20
2018-06-24T05:22:14.162Z,4.50
2018-06-24T05:24:43.469Z,5.23
2018-06-24T05:27:12.658Z,5.00
2018-06-24T05:29:41.897Z,5.63
2018-06-24T05:32:11.098Z,6.20
2018-06-24T05:34:40.312Z,5.07
2018-06-24T05:37:09.526Z,5.60
2018-06-24T05:39:38.768Z,5.40
2018-06-24T05:42:08.111Z,5.30
2018-06-24T05:44:37.295Z,5.70
2018-06-24T05:47:06.484Z,5.47
2018-06-24T05:49:35.375Z,5.80
2018-06-24T05:52:04.608Z,6.27
2018-06-24T05:54:33.860Z,6.30
2018-06-24T05:58:06.285Z,6.80
2018-06-24T06:00:35.497Z,5.90
2018-06-24T06:03:04.784Z,6.07
2018-06-24T06:05:33.976Z,6.20
2018-06-24T06:08:03.247Z,5.53
2018-06-24T06:10:32.482Z,5.10
2018-06-24T06:13:01.698Z,5.80
2018-06-24T06:15:30.967Z,5.20
2018-06-24T06:18:00.226Z,5.20
2018-06-24T06:20:30.551Z,5.33
2018-06-24T06:22:59.808Z,3.67
2018-06-24T06:25:29.031Z,4.43
2018-06-24T06:27:58.278Z,4.60
2018-06-24T06:30:27.532Z,4.50
2018-06-24T06:32:56.852Z,4.87
2018-06-24T06:35:26.067Z,4.40
2018-06-24T06:37:55.331Z,4.70
2018-06-24T06:40:24.596Z,3.90
2018-06-24T06:42:53.875Z,4.20
2018-06-24T06:45:23.230Z,5.53
2018-06-24T06:47:52.434Z,5.47
2018-06-24T06:50:21.677Z,3.87
2018-06-24T06:52:50.917Z,4.87
2018-06-24T06:55:20.973Z,3.63
2018-06-24T06:57:50.210Z,4.87
2018-06-24T07:00:19.441Z,4.50
2018-06-24T07:02:48.657Z,4.30
2018-06-24T07:05:17.912Z,3.10
2018-06-24T07:07:47.100Z,4.30
2018-06-24T07:10:16.339Z,3.37
2018-06-24T07:12:45.603Z,3.13
2018-06-24T07:15:14.861Z,3.83
2018-06-24T07:17:44.067Z,3.60
2018-06-24T07:20:13.043Z,3.50
2018-06-24T07:22:43.268Z,4.07
2018-06-24T07:25:12.538Z,4.07
2018-06-24T07:27:41.918Z,4.27
2018-06-24T07:30:11.208Z,4.13
2018-06-24T07:32:40.489Z,5.20
2018-06-24T07:35:09.790Z,4.50
2018-06-24T07:37:38.995Z,4.70
2018-06-24T07:40:08.223Z,4.70
2018-06-24T07:42:37.448Z,4.73
2018-06-24T07:45:06.751Z,3.97
2018-06-24T07:47:35.956Z,4.37
2018-06-24T07:50:05.359Z,3.83
2018-06-24T07:52:34.578Z,3.93
2018-06-24T07:55:03.987Z,3.70
2018-06-24T07:57:34.444Z,4.07
2018-06-24T08:00:05.459Z,3.60
2018-06-24T08:02:34.945Z,5.27
2018-06-24T08:05:04.555Z,3.37
2018-06-24T08:07:33.796Z,2.67
2018-06-24T08:10:03.097Z,3.03
2018-06-24T08:12:32.329Z,3.40
2018-06-24T08:15:01.596Z,3.87
2018-06-24T08:17:30.862Z,3.10
2018-06-24T08:20:00.775Z,3.60
2018-06-24T08:22:30.033Z,3.60
2018-06-24T08:24:59.323Z,3.87
2018-06-24T08:27:28.552Z,4.17
2018-06-24T08:29:58.548Z,3.30
2018-06-24T08:32:28.139Z,3.83
2018-06-24T08:34:57.389Z,3.20
2018-06-24T08:37:26.703Z,3.53
2018-06-24T08:39:55.961Z,3.20
2018-06-24T08:42:26.298Z,3.70
2018-06-24T08:44:56.543Z,3.93
2018-06-24T08:47:25.796Z,3.00
2018-06-24T08:49:55.097Z,3.87
2018-06-24T08:52:24.318Z,3.50
2018-06-24T08:54:53.568Z,3.90
2018-06-24T08:57:22.784Z,3.40
2018-06-24T08:59:51.724Z,2.20
2018-06-24T09:02:20.783Z,2.87
2018-06-24T09:04:50.033Z,3.50
2018-06-24T09:07:19.241Z,3.90
2018-06-24T09:09:48.563Z,2.60
2018-06-24T09:12:17.800Z,3.37
2018-06-24T09:14:47.108Z,3.20
2018-06-24T09:17:16.299Z,3.60
2018-06-24T09:19:45.627Z,3.63
2018-06-24T09:22:14.870Z,3.83
2018-06-24T09:24:44.095Z,4.60
2018-06-24T09:27:13.382Z,4.80
2018-06-24T09:29:42.809Z,4.00
2018-06-24T09:32:12.017Z,4.50
2018-06-24T09:34:41.238Z,5.37
2018-06-24T09:37:10.485Z,4.30
2018-06-24T09:39:40.269Z,4.00
2018-06-24T09:42:09.552Z,4.50
2018-06-24T09:44:38.827Z,4.10
2018-06-24T09:47:07.813Z,4.10
2018-06-24T09:49:36.864Z,4.93
2018-06-24T09:52:06.167Z,4.13
2018-06-24T09:54:35.407Z,4.33
2018-06-24T09:57:04.763Z,3.90
2018-06-24T09:59:34.023Z,4.27
2018-06-24T10:02:03.255Z,3.97
2018-06-24T10:04:32.510Z,4.37
2018-06-24T10:07:03.076Z,4.00
2018-06-24T10:09:32.346Z,4.00
2018-06-24T10:12:02.712Z,3.43
2018-06-24T10:14:32.038Z,3.93
2018-06-24T10:17:01.275Z,4.37
2018-06-24T10:19:30.505Z,4.73
2018-06-24T10:21:59.855Z,3.43
2018-06-24T10:24:29.076Z,3.97
2018-06-24T10:26:58.468Z,3.57
2018-06-24T10:29:27.801Z,3.97
2018-06-24T10:31:57.080Z,3.17
2018-06-24T10:34:26.722Z,3.40
2018-06-24T10:36:55.672Z,3.40
2018-06-24T10:39:25.978Z,3.00
2018-06-24T10:41:55.198Z,2.93
2018-06-24T10:44:24.599Z,3.47
2018-06-24T10:46:53.843Z,3.40
2018-06-24T10:49:23.719Z,2.93
2018-06-24T10:51:52.957Z,3.33
2018-06-24T10:54:22.175Z,3.10
2018-06-24T10:56:51.482Z,3.17
2018-06-24T10:59:20.777Z,2.87
2018-06-24T11:01:51.192Z,2.60
2018-06-24T11:04:20.423Z,2.97
2018-06-24T11:06:49.715Z,3.10
2018-06-24T11:09:19.963Z,3.87
2018-06-24T11:11:49.262Z,2.83
2018-06-24T11:14:18.472Z,3.43
2018-06-24T11:16:47.713Z,2.43
2018-06-24T11:19:17.213Z,3.60
2018-06-24T11:21:47.150Z,2.17
2018-06-24T11:24:16.723Z,2.23
2018-06-24T11:26:46.065Z,2.10
2018-06-24T11:29:15.487Z,3.10
2018-06-24T11:31:44.723Z,3.47
2018-06-24T11:34:14.032Z,2.50
2018-06-24T11:36:43.264Z,2.63
2018-06-24T11:39:12.491Z,3.23
2018-06-24T11:41:41.668Z,3.30
2018-06-24T11:44:10.911Z,3.10
2018-06-24T11:46:40.377Z,3.40
2018-06-24T11:49:09.615Z,3.80
2018-06-24T11:51:38.989Z,3.00
2018-06-24T11:54:09.335Z,4.03
2018-06-24T11:56:39.605Z,3.57
2018-06-24T11:59:08.923Z,2.73
2018-06-24T12:01:38.178Z,4.17
2018-06-24T12:04:07.460Z,2.80
2018-06-24T12:06:36.872Z,2.93
2018-06-24T12:09:09.657Z,2.80
2018-06-24T12:11:38.882Z,2.60
2018-06-24T12:14:08.237Z,3.23
2018-06-24T12:16:37.232Z,2.90
2018-06-24T12:19:06.407Z,2.37
2018-06-24T12:21:35.795Z,2.77
2018-06-24T12:24:05.048Z,2.23
2018-06-24T12:26:34.269Z,3.00
2018-06-24T12:29:03.577Z,3.10
2018-06-24T12:31:32.820Z,3.30
2018-06-24T12:34:02.105Z,3.00
2018-06-24T12:36:37.411Z,2.90
2018-06-24T12:39:10.224Z,3.17
2018-06-24T12:41:39.617Z,2.83
2018-06-24T12:44:09.693Z,2.90
2018-06-24T12:46:38.971Z,3.17
2018-06-24T12:49:08.719Z,2.73
2018-06-24T12:51:38.734Z,3.23
2018-06-24T12:54:09.496Z,2.97
2018-06-24T12:56:38.969Z,2.83
2018-06-24T12:59:08.488Z,3.33
2018-06-24T13:01:37.470Z,2.90
2018-06-24T13:04:06.979Z,2.90
2018-06-24T13:06:36.230Z,3.37
2018-06-24T13:09:08.381Z,3.10
2018-06-24T13:11:39.661Z,3.57
2018-06-24T13:14:08.987Z,3.37
2018-06-24T13:16:38.425Z,3.50
2018-06-24T13:19:07.846Z,3.50
2018-06-24T13:21:36.779Z,3.37
2018-06-24T13:24:06.211Z,3.70
2018-06-24T13:26:36.607Z,3.83
2018-06-24T13:29:06.202Z,3.80
2018-06-24T13:31:35.453Z,4.23
2018-06-24T13:34:05.283Z,4.00
2018-06-24T13:36:34.720Z,4.20
2018-06-24T13:39:06.039Z,3.83
2018-06-24T13:41:35.442Z,3.00
2018-06-24T13:44:05.431Z,3.13
2018-06-24T13:46:35.642Z,3.83
2018-06-24T13:49:05.012Z,3.80
2018-06-24T13:51:34.324Z,2.70
2018-06-24T13:54:03.672Z,3.10
2018-06-24T13:56:32.999Z,3.10
2018-06-24T13:59:03.265Z,3.00
2018-06-24T14:01:32.495Z,3.20
2018-06-24T14:04:01.855Z,3.67
2018-06-24T14:06:31.084Z,4.23
2018-06-24T14:09:00.157Z,4.77
2018-06-24T14:11:29.246Z,5.93
2018-06-24T14:13:58.649Z,7.50
2018-06-24T14:16:27.888Z,6.13
2018-06-24T14:18:57.129Z,6.70
2018-06-24T14:21:26.392Z,6.50
2018-06-24T14:23:55.672Z,6.73
2018-06-24T14:26:25.013Z,5.30
2018-06-24T14:28:54.315Z,5.60
2018-06-24T14:31:23.506Z,7.07
2018-06-24T14:33:52.763Z,6.30
2018-06-24T14:36:22.435Z,6.30
2018-06-24T14:38:51.850Z,5.63
2018-06-24T14:41:22.193Z,5.60
2018-06-24T14:43:51.587Z,5.90
2018-06-24T14:46:20.904Z,4.97
2018-06-24T14:48:50.302Z,5.00
2018-06-24T14:51:19.655Z,5.53
2018-06-24T14:53:49.048Z,3.47
2018-06-24T14:56:18.439Z,4.43
2018-06-24T14:58:48.383Z,3.67
2018-06-24T15:01:17.777Z,3.80
2018-06-24T15:03:47.145Z,2.70
2018-06-24T15:06:16.588Z,3.10
2018-06-24T15:08:45.915Z,3.43
2018-06-24T15:11:15.249Z,3.13
2018-06-24T15:13:44.556Z,2.93
2018-06-24T15:16:13.918Z,2.50
2018-06-24T15:18:43.284Z,2.83
2018-06-24T15:21:12.774Z,2.33
2018-06-24T15:23:42.242Z,2.70
2018-06-24T15:26:11.654Z,3.03
2018-06-24T15:28:41.023Z,2.90
2018-06-24T15:31:10.468Z,3.67
2018-06-24T15:36:16.327Z,3.00
2018-06-24T15:38:45.785Z,3.93
2018-06-24T15:41:15.575Z,3.20
2018-06-24T15:43:44.883Z,3.40
2018-06-24T15:46:15.023Z,3.73
2018-06-24T15:48:45.093Z,3.50
2018-06-24T15:51:16.746Z,3.90
2018-06-24T15:53:46.253Z,4.00
2018-06-24T15:56:15.626Z,6.03
2018-06-24T15:58:45.107Z,4.97
2018-06-24T16:01:15.458Z,4.33
2018-06-24T16:03:44.926Z,4.83
2018-06-24T16:06:14.387Z,6.30
2018-06-24T16:08:43.734Z,5.90
2018-06-24T16:11:13.119Z,5.60
2018-06-24T16:13:42.480Z,4.60
2018-06-24T16:16:11.762Z,4.37
2018-06-24T16:18:41.654Z,3.80
2018-06-24T16:21:11.204Z,4.50
2018-06-24T16:23:40.465Z,4.10
2018-06-24T16:26:09.846Z,4.07
2018-06-24T16:28:39.391Z,5.40
2018-06-24T16:31:08.652Z,3.97
2018-06-24T16:33:38.064Z,4.30
2018-06-24T16:36:07.475Z,3.40
2018-06-24T16:38:36.855Z,4.50
2018-06-24T16:41:06.293Z,4.30
2018-06-24T16:43:35.713Z,4.40
2018-06-24T16:46:05.350Z,3.73
2018-06-24T16:48:34.678Z,4.53
2018-06-24T16:51:03.965Z,4.27
2018-06-24T16:53:33.549Z,3.07
2018-06-24T16:56:03.013Z,3.50
2018-06-24T16:58:32.545Z,3.53
2018-06-24T17:01:02.025Z,3.33
2018-06-24T17:03:31.942Z,3.30
2018-06-24T17:06:01.304Z,4.07
2018-06-24T17:08:31.031Z,3.30
2018-06-24T17:11:00.510Z,3.07
2018-06-24T17:13:29.814Z,2.90
2018-06-24T17:15:59.192Z,3.60
2018-06-24T17:18:28.565Z,3.20
2018-06-24T17:20:58.006Z,3.47
2018-06-24T17:23:27.297Z,3.13
2018-06-24T17:25:56.610Z,4.07
2018-06-24T17:28:25.894Z,3.33
2018-06-24T17:30:56.272Z,3.13
2018-06-24T17:33:26.677Z,3.43
2018-06-24T17:35:55.610Z,2.33
2018-06-24T17:38:25.314Z,2.60
2018-06-24T17:40:54.832Z,2.30
2018-06-24T17:43:24.142Z,3.07
2018-06-24T17:45:54.131Z,2.33
2018-06-24T17:48:23.521Z,2.70
2018-06-24T17:50:52.839Z,3.30
2018-06-24T17:53:22.333Z,2.70
2018-06-24T17:55:51.748Z,2.33
2018-06-24T17:58:21.176Z,2.87
2018-06-24T18:00:50.482Z,2.60
2018-06-24T18:03:19.962Z,2.90
2018-06-24T18:05:49.301Z,2.40
2018-06-24T18:08:18.640Z,2.60
2018-06-24T18:10:48.285Z,3.03
2018-06-24T18:13:18.609Z,3.50
2018-06-24T18:15:47.942Z,2.70
2018-06-24T18:18:17.276Z,3.60
2018-06-24T18:20:46.554Z,3.33
2018-06-24T18:23:16.024Z,3.13
2018-06-24T18:25:45.406Z,4.03
2018-06-24T18:28:14.871Z,3.30
2018-06-24T18:30:45.378Z,3.50
2018-06-24T18:33:15.505Z,2.63
2018-06-24T18:35:45.719Z,2.40
2018-06-24T18:38:15.663Z,3.23
2018-06-24T18:40:45.070Z,3.77
2018-06-24T18:43:14.488Z,2.90
2018-06-24T18:45:43.819Z,3.50
2018-06-24T18:48:14.004Z,3.20
2018-06-24T18:50:43.960Z,3.17
2018-06-24T18:53:13.377Z,3.57
2018-06-24T18:55:42.964Z,3.20
2018-06-24T18:58:12.287Z,3.10
2018-06-24T19:00:41.685Z,3.00
2018-06-24T19:03:11.129Z,3.47
2018-06-24T19:05:41.758Z,3.40
2018-06-24T19:08:11.087Z,3.13
2018-06-24T19:10:40.417Z,3.23
2018-06-24T19:13:10.401Z,3.40
2018-06-24T19:15:39.752Z,3.20
2018-06-24T19:18:09.572Z,3.10
2018-06-24T19:20:40.190Z,3.10
2018-06-24T19:23:10.029Z,3.00
2018-06-24T19:25:39.411Z,3.30
2018-06-24T19:28:09.002Z,3.17
2018-06-24T19:30:38.511Z,3.07
2018-06-24T19:33:07.924Z,3.10
2018-06-24T19:35:37.439Z,2.83
2018-06-24T19:38:12.246Z,2.80
2018-06-24T19:40:41.757Z,2.20
2018-06-24T19:43:11.358Z,3.17
2018-06-24T19:45:40.649Z,2.37
2018-06-24T19:48:09.974Z,2.70
2018-06-24T19:50:39.476Z,1.43
2018-06-24T19:53:09.732Z,1.17
2018-06-24T19:55:39.074Z,1.37
2018-06-24T19:58:08.429Z,1.30
2018-06-24T20:00:37.804Z,1.40
2018-06-24T20:03:07.344Z,1.20
2018-06-24T20:05:36.753Z,1.50
2018-06-24T20:08:06.193Z,1.00
2018-06-24T20:10:35.673Z,1.30
2018-06-24T20:13:05.070Z,1.33
2018-06-24T20:15:34.491Z,1.20
2018-06-24T20:18:03.854Z,1.23
2018-06-24T20:20:34.165Z,1.80
2018-06-24T20:23:03.554Z,1.40
2018-06-24T20:25:32.907Z,1.30
2018-06-24T20:28:02.637Z,0.80
2018-06-24T20:30:32.010Z,1.10
2018-06-24T20:33:01.327Z,1.80
2018-06-24T20:35:30.870Z,1.10
2018-06-24T20:38:01.304Z,2.00
2018-06-24T20:40:30.670Z,1.40
2018-06-24T20:43:00.019Z,1.60
2018-06-24T20:45:29.371Z,1.67
2018-06-24T20:47:58.857Z,1.77
2018-06-24T20:50:28.295Z,1.80
2018-06-24T20:52:57.742Z,2.03
2018-06-24T20:55:27.218Z,2.20
2018-06-24T20:57:56.600Z,2.17
2018-06-24T21:00:25.971Z,3.03
2018-06-24T21:02:55.580Z,2.60
2018-06-24T21:05:25.888Z,2.50
2018-06-24T21:07:55.528Z,2.53
2018-06-24T21:10:24.826Z,2.57
2018-06-24T21:12:54.675Z,2.40
2018-06-24T21:15:24.078Z,3.00
2018-06-24T21:17:53.536Z,2.37
2018-06-24T21:20:22.969Z,2.10
2018-06-24T21:22:52.538Z,1.53
2018-06-24T21:25:21.938Z,1.43
2018-06-24T21:27:51.242Z,1.40
2018-06-24T21:30:20.570Z,1.70
2018-06-24T21:32:49.939Z,1.80
2018-06-24T21:35:19.282Z,1.80
2018-06-24T21:37:48.777Z,1.63
2018-06-24T21:40:19.141Z,2.00
2018-06-24T21:42:49.179Z,2.60
2018-06-24T21:45:18.873Z,2.20
2018-06-24T21:47:49.266Z,3.00
2018-06-24T21:50:18.631Z,2.80
2018-06-24T21:52:48.036Z,3.00
2018-06-24T21:55:19.471Z,2.73
2018-06-24T21:57:48.861Z,3.60
2018-06-24T22:00:18.264Z,3.97
2018-06-24T22:02:47.641Z,3.57
2018-06-24T22:05:16.966Z,2.80
2018-06-24T22:07:46.353Z,2.60
2018-06-24T22:10:15.698Z,3.10
2018-06-24T22:12:45.596Z,3.60
2018-06-24T22:15:16.138Z,2.50
2018-06-24T22:17:45.637Z,2.47
2018-06-24T22:20:16.281Z,2.83
2018-06-24T22:22:45.701Z,2.70
2018-06-24T22:25:15.196Z,2.70
2018-06-24T22:27:44.935Z,2.30
2018-06-24T22:30:14.281Z,2.13
2018-06-24T22:32:43.669Z,2.13
2018-06-24T22:35:12.828Z,2.30
2018-06-24T22:37:42.224Z,2.50
2018-06-24T22:40:11.587Z,2.60
2018-06-24T22:42:41.423Z,2.67
2018-06-24T22:45:11.443Z,2.97
2018-06-24T22:47:41.163Z,2.60
2018-06-24T22:50:10.746Z,2.40
2018-06-24T22:52:40.173Z,2.80
2018-06-24T22:55:10.503Z,2.43
2018-06-24T22:57:39.963Z,2.87
2018-06-24T23:00:16.324Z,3.53
2018-06-24T23:02:46.721Z,3.00
2018-06-24T23:05:15.885Z,3.80
2018-06-24T23:07:45.650Z,2.70
2018-06-24T23:10:15.344Z,3.83
2018-06-24T23:12:44.689Z,3.50
2018-06-24T23:15:14.027Z,3.37
2018-06-24T23:17:43.326Z,4.17
2018-06-24T23:20:12.717Z,3.50
2018-06-24T23:22:42.584Z,3.20
2018-06-24T23:25:11.914Z,3.73
2018-06-24T23:27:41.270Z,3.50
2018-06-24T23:30:10.612Z,3.50
2018-06-24T23:32:39.956Z,3.40
2018-06-24T23:35:09.247Z,3.50
2018-06-24T23:37:38.291Z,3.50
2018-06-24T23:40:07.490Z,3.27
2018-06-24T23:42:36.867Z,4.43
2018-06-24T23:45:06.194Z,3.63
2018-06-24T23:47:35.549Z,3.73
2018-06-24T23:50:05.206Z,3.73
2018-06-24T23:52:34.542Z,3.20
2018-06-24T23:55:03.986Z,4.10
2018-06-24T23:57:34.329Z,3.80
